sensor_id;sensor_type;location;lat;lon;timestamp;P1;durP1;ratioP1;P2;durP2;ratioP2
25972;SDS011;13765;51.166;4.466;2023-05-06T00:00:26;10.27;;;3.45;;
25972;SDS011;13765;51.166;4.466;2023-05-06T00:02:52;12.40;;;3.85;;
25972;SDS011;13765;51.166;4.466;2023-05-06T00:05:18;11.52;;;3.55;;
25972;SDS011;13765;51.166;4.466;2023-05-06T00:07:44;7.82;;;3.15;;
25972;SDS011;13765;51.166;4.466;2023-05-06T00:10:12;10.80;;;4.00;;
25972;SDS011;13765;51.166;4.466;2023-05-06T00:12:38;11.15;;;3.55;;
25972;SDS011;13765;51.166;4.466;2023-05-06T00:15:07;9.65;;;3.70;;
25972;SDS011;13765;51.166;4.466;2023-05-06T00:17:33;12.50;;;3.75;;
25972;SDS011;13765;51.166;4.466;2023-05-06T00:20:01;10.98;;;3.40;;
25972;SDS011;13765;51.166;4.466;2023-05-06T00:22:29;10.05;;;3.70;;
25972;SDS011;13765;51.166;4.466;2023-05-06T00:24:55;10.27;;;3.58;;
25972;SDS011;13765;51.166;4.466;2023-05-06T00:27:21;7.63;;;2.80;;
25972;SDS011;13765;51.166;4.466;2023-05-06T00:29:46;8.98;;;3.20;;
25972;SDS011;13765;51.166;4.466;2023-05-06T00:32:12;7.25;;;2.80;;
25972;SDS011;13765;51.166;4.466;2023-05-06T00:34:38;6.15;;;2.80;;
25972;SDS011;13765;51.166;4.466;2023-05-06T00:37:03;8.77;;;2.72;;
25972;SDS011;13765;51.166;4.466;2023-05-06T00:39:29;9.30;;;3.05;;
25972;SDS011;13765;51.166;4.466;2023-05-06T00:41:58;8.82;;;3.22;;
25972;SDS011;13765;51.166;4.466;2023-05-06T00:44:26;5.70;;;2.97;;
25972;SDS011;13765;51.166;4.466;2023-05-06T00:46:55;7.78;;;2.78;;
25972;SDS011;13765;51.166;4.466;2023-05-06T00:49:22;6.88;;;2.40;;
25972;SDS011;13765;51.166;4.466;2023-05-06T00:51:50;14.43;;;3.88;;
25972;SDS011;13765;51.166;4.466;2023-05-06T00:54:17;7.00;;;2.90;;
25972;SDS011;13765;51.166;4.466;2023-05-06T00:56:46;10.43;;;2.75;;
25972;SDS011;13765;51.166;4.466;2023-05-06T00:59:11;5.57;;;2.80;;
25972;SDS011;13765;51.166;4.466;2023-05-06T01:01:37;7.05;;;2.58;;
25972;SDS011;13765;51.166;4.466;2023-05-06T01:04:03;8.52;;;2.58;;
25972;SDS011;13765;51.166;4.466;2023-05-06T01:17:43;8.65;;;3.45;;
25972;SDS011;13765;51.166;4.466;2023-05-06T01:20:14;9.60;;;2.70;;
25972;SDS011;13765;51.166;4.466;2023-05-06T01:22:44;6.30;;;3.00;;
25972;SDS011;13765;51.166;4.466;2023-05-06T01:25:17;9.23;;;3.38;;
25972;SDS011;13765;51.166;4.466;2023-05-06T01:27:44;5.82;;;2.42;;
25972;SDS011;13765;51.166;4.466;2023-05-06T01:30:10;5.72;;;2.47;;
25972;SDS011;13765;51.166;4.466;2023-05-06T01:32:52;9.35;;;3.00;;
25972;SDS011;13765;51.166;4.466;2023-05-06T01:35:32;11.48;;;2.55;;
25972;SDS011;13765;51.166;4.466;2023-05-06T01:38:15;7.82;;;2.85;;
25972;SDS011;13765;51.166;4.466;2023-05-06T01:40:50;11.90;;;4.03;;
25972;SDS011;13765;51.166;4.466;2023-05-06T01:43:20;7.93;;;3.05;;
25972;SDS011;13765;51.166;4.466;2023-05-06T01:45:48;6.50;;;2.53;;
25972;SDS011;13765;51.166;4.466;2023-05-06T01:48:27;10.65;;;3.20;;
25972;SDS011;13765;51.166;4.466;2023-05-06T01:50:56;10.25;;;3.30;;
25972;SDS011;13765;51.166;4.466;2023-05-06T01:53:21;11.57;;;3.13;;
25972;SDS011;13765;51.166;4.466;2023-05-06T01:55:47;8.27;;;2.72;;
25972;SDS011;13765;51.166;4.466;2023-05-06T01:58:13;5.35;;;2.42;;
25972;SDS011;13765;51.166;4.466;2023-05-06T02:00:40;8.43;;;2.67;;
25972;SDS011;13765;51.166;4.466;2023-05-06T02:03:05;10.90;;;3.08;;
25972;SDS011;13765;51.166;4.466;2023-05-06T02:05:31;6.07;;;2.22;;
25972;SDS011;13765;51.166;4.466;2023-05-06T02:07:57;9.70;;;3.13;;
25972;SDS011;13765;51.166;4.466;2023-05-06T02:10:22;11.25;;;3.58;;
25972;SDS011;13765;51.166;4.466;2023-05-06T02:12:48;8.65;;;2.60;;
25972;SDS011;13765;51.166;4.466;2023-05-06T02:15:14;8.77;;;3.13;;
25972;SDS011;13765;51.166;4.466;2023-05-06T02:17:39;11.93;;;3.05;;
25972;SDS011;13765;51.166;4.466;2023-05-06T02:20:05;7.40;;;2.78;;
25972;SDS011;13765;51.166;4.466;2023-05-06T02:22:33;11.55;;;3.17;;
25972;SDS011;13765;51.166;4.466;2023-05-06T02:25:02;8.45;;;2.88;;
25972;SDS011;13765;51.166;4.466;2023-05-06T02:27:28;8.77;;;3.38;;
25972;SDS011;13765;51.166;4.466;2023-05-06T02:29:57;5.93;;;2.75;;
25972;SDS011;13765;51.166;4.466;2023-05-06T02:32:23;7.88;;;2.58;;
25972;SDS011;13765;51.166;4.466;2023-05-06T02:34:49;10.73;;;3.50;;
25972;SDS011;13765;51.166;4.466;2023-05-06T02:37:15;12.02;;;3.08;;
25972;SDS011;13765;51.166;4.466;2023-05-06T02:39:41;16.40;;;3.47;;
25972;SDS011;13765;51.166;4.466;2023-05-06T02:42:06;10.15;;;2.70;;
25972;SDS011;13765;51.166;4.466;2023-05-06T02:44:32;10.32;;;2.53;;
25972;SDS011;13765;51.166;4.466;2023-05-06T02:47:00;8.77;;;3.53;;
25972;SDS011;13765;51.166;4.466;2023-05-06T02:49:25;4.50;;;2.25;;
25972;SDS011;13765;51.166;4.466;2023-05-06T02:51:51;6.65;;;2.85;;
25972;SDS011;13765;51.166;4.466;2023-05-06T02:54:17;8.65;;;2.75;;
25972;SDS011;13765;51.166;4.466;2023-05-06T02:56:42;7.82;;;3.00;;
25972;SDS011;13765;51.166;4.466;2023-05-06T02:59:10;6.80;;;3.03;;
25972;SDS011;13765;51.166;4.466;2023-05-06T03:01:35;8.55;;;2.45;;
25972;SDS011;13765;51.166;4.466;2023-05-06T03:04:01;10.23;;;3.47;;
25972;SDS011;13765;51.166;4.466;2023-05-06T03:06:27;9.68;;;3.03;;
25972;SDS011;13765;51.166;4.466;2023-05-06T03:08:53;7.70;;;3.00;;
25972;SDS011;13765;51.166;4.466;2023-05-06T03:11:18;9.38;;;2.65;;
25972;SDS011;13765;51.166;4.466;2023-05-06T03:13:45;5.97;;;2.65;;
25972;SDS011;13765;51.166;4.466;2023-05-06T03:16:11;8.00;;;3.00;;
25972;SDS011;13765;51.166;4.466;2023-05-06T03:18:38;7.40;;;2.78;;
25972;SDS011;13765;51.166;4.466;2023-05-06T03:21:03;6.38;;;2.42;;
25972;SDS011;13765;51.166;4.466;2023-05-06T03:23:29;9.50;;;2.88;;
25972;SDS011;13765;51.166;4.466;2023-05-06T03:25:55;10.57;;;3.30;;
25972;SDS011;13765;51.166;4.466;2023-05-06T03:28:20;12.25;;;3.22;;
25972;SDS011;13765;51.166;4.466;2023-05-06T03:30:46;7.13;;;2.38;;
25972;SDS011;13765;51.166;4.466;2023-05-06T03:33:12;5.18;;;2.28;;
25972;SDS011;13765;51.166;4.466;2023-05-06T03:35:37;7.75;;;2.92;;
25972;SDS011;13765;51.166;4.466;2023-05-06T03:38:04;10.75;;;3.05;;
25972;SDS011;13765;51.166;4.466;2023-05-06T03:40:30;11.50;;;3.42;;
25972;SDS011;13765;51.166;4.466;2023-05-06T03:42:56;6.60;;;2.22;;
25972;SDS011;13765;51.166;4.466;2023-05-06T03:45:22;9.68;;;3.28;;
25972;SDS011;13765;51.166;4.466;2023-05-06T03:47:47;14.55;;;4.05;;
25972;SDS011;13765;51.166;4.466;2023-05-06T03:50:13;12.20;;;3.08;;
25972;SDS011;13765;51.166;4.466;2023-05-06T03:52:39;8.05;;;3.25;;
25972;SDS011;13765;51.166;4.466;2023-05-06T03:55:05;8.35;;;3.42;;
25972;SDS011;13765;51.166;4.466;2023-05-06T03:57:31;11.98;;;3.25;;
25972;SDS011;13765;51.166;4.466;2023-05-06T03:59:56;9.55;;;3.08;;
25972;SDS011;13765;51.166;4.466;2023-05-06T04:02:22;8.45;;;2.85;;
25972;SDS011;13765;51.166;4.466;2023-05-06T04:04:50;4.82;;;2.55;;
25972;SDS011;13765;51.166;4.466;2023-05-06T04:07:16;8.77;;;3.08;;
25972;SDS011;13765;51.166;4.466;2023-05-06T04:09:41;8.68;;;3.22;;
25972;SDS011;13765;51.166;4.466;2023-05-06T04:12:07;7.75;;;3.40;;
25972;SDS011;13765;51.166;4.466;2023-05-06T04:14:33;9.65;;;2.63;;
25972;SDS011;13765;51.166;4.466;2023-05-06T04:17:01;13.13;;;3.80;;
25972;SDS011;13765;51.166;4.466;2023-05-06T04:19:29;12.75;;;2.63;;
25972;SDS011;13765;51.166;4.466;2023-05-06T04:21:56;4.30;;;2.13;;
25972;SDS011;13765;51.166;4.466;2023-05-06T04:24:22;9.90;;;3.83;;
25972;SDS011;13765;51.166;4.466;2023-05-06T04:26:48;4.60;;;2.45;;
25972;SDS011;13765;51.166;4.466;2023-05-06T04:29:14;9.85;;;3.10;;
25972;SDS011;13765;51.166;4.466;2023-05-06T04:31:40;8.90;;;2.92;;
25972;SDS011;13765;51.166;4.466;2023-05-06T04:34:06;11.85;;;3.70;;
25972;SDS011;13765;51.166;4.466;2023-05-06T04:36:31;11.30;;;2.88;;
25972;SDS011;13765;51.166;4.466;2023-05-06T04:38:57;6.82;;;2.97;;
25972;SDS011;13765;51.166;4.466;2023-05-06T04:41:23;8.35;;;3.33;;
25972;SDS011;13765;51.166;4.466;2023-05-06T04:43:52;9.75;;;2.97;;
25972;SDS011;13765;51.166;4.466;2023-05-06T04:46:20;9.45;;;3.90;;
25972;SDS011;13765;51.166;4.466;2023-05-06T04:48:48;15.80;;;3.42;;
25972;SDS011;13765;51.166;4.466;2023-05-06T04:51:13;9.95;;;2.85;;
25972;SDS011;13765;51.166;4.466;2023-05-06T04:53:39;11.20;;;2.53;;
25972;SDS011;13765;51.166;4.466;2023-05-06T04:56:05;12.05;;;3.50;;
25972;SDS011;13765;51.166;4.466;2023-05-06T04:58:31;9.60;;;3.30;;
25972;SDS011;13765;51.166;4.466;2023-05-06T05:00:58;9.52;;;3.35;;
25972;SDS011;13765;51.166;4.466;2023-05-06T05:03:31;9.80;;;2.80;;
25972;SDS011;13765;51.166;4.466;2023-05-06T05:05:57;7.63;;;2.90;;
25972;SDS011;13765;51.166;4.466;2023-05-06T05:08:23;9.35;;;3.17;;
25972;SDS011;13765;51.166;4.466;2023-05-06T05:10:50;11.05;;;3.40;;
25972;SDS011;13765;51.166;4.466;2023-05-06T05:13:16;14.93;;;3.22;;
25972;SDS011;13765;51.166;4.466;2023-05-06T05:15:41;13.70;;;3.33;;
25972;SDS011;13765;51.166;4.466;2023-05-06T05:18:07;10.40;;;3.22;;
25972;SDS011;13765;51.166;4.466;2023-05-06T05:20:33;11.10;;;3.35;;
25972;SDS011;13765;51.166;4.466;2023-05-06T05:22:58;10.73;;;3.42;;
25972;SDS011;13765;51.166;4.466;2023-05-06T05:25:24;10.07;;;3.15;;
25972;SDS011;13765;51.166;4.466;2023-05-06T05:27:50;14.10;;;3.63;;
25972;SDS011;13765;51.166;4.466;2023-05-06T05:30:16;14.82;;;3.63;;
25972;SDS011;13765;51.166;4.466;2023-05-06T05:32:41;9.45;;;3.25;;
25972;SDS011;13765;51.166;4.466;2023-05-06T05:35:07;12.45;;;3.17;;
25972;SDS011;13765;51.166;4.466;2023-05-06T05:37:36;9.48;;;2.55;;
25972;SDS011;13765;51.166;4.466;2023-05-06T05:40:01;10.85;;;3.42;;
25972;SDS011;13765;51.166;4.466;2023-05-06T05:42:28;7.57;;;2.88;;
25972;SDS011;13765;51.166;4.466;2023-05-06T05:44:57;11.50;;;3.30;;
25972;SDS011;13765;51.166;4.466;2023-05-06T05:47:23;9.90;;;3.78;;
25972;SDS011;13765;51.166;4.466;2023-05-06T05:49:49;9.43;;;3.38;;
25972;SDS011;13765;51.166;4.466;2023-05-06T05:52:15;6.20;;;2.65;;
25972;SDS011;13765;51.166;4.466;2023-05-06T05:54:40;10.85;;;3.10;;
25972;SDS011;13765;51.166;4.466;2023-05-06T05:57:08;7.68;;;2.60;;
25972;SDS011;13765;51.166;4.466;2023-05-06T05:59:35;8.85;;;2.65;;
25972;SDS011;13765;51.166;4.466;2023-05-06T06:02:01;12.50;;;3.13;;
25972;SDS011;13765;51.166;4.466;2023-05-06T06:04:26;11.85;;;2.92;;
25972;SDS011;13765;51.166;4.466;2023-05-06T06:06:54;9.60;;;3.10;;
25972;SDS011;13765;51.166;4.466;2023-05-06T06:09:22;10.43;;;2.90;;
25972;SDS011;13765;51.166;4.466;2023-05-06T06:11:48;9.45;;;3.08;;
25972;SDS011;13765;51.166;4.466;2023-05-06T06:14:13;11.07;;;3.60;;
25972;SDS011;13765;51.166;4.466;2023-05-06T06:16:39;13.40;;;3.45;;
25972;SDS011;13765;51.166;4.466;2023-05-06T06:19:04;9.18;;;3.25;;
25972;SDS011;13765;51.166;4.466;2023-05-06T06:21:30;7.65;;;2.45;;
25972;SDS011;13765;51.166;4.466;2023-05-06T06:23:56;16.88;;;3.35;;
25972;SDS011;13765;51.166;4.466;2023-05-06T06:26:22;9.13;;;2.40;;
25972;SDS011;13765;51.166;4.466;2023-05-06T06:28:50;10.95;;;3.40;;
25972;SDS011;13765;51.166;4.466;2023-05-06T06:31:15;10.15;;;3.03;;
25972;SDS011;13765;51.166;4.466;2023-05-06T06:33:41;13.48;;;3.30;;
25972;SDS011;13765;51.166;4.466;2023-05-06T06:36:07;10.30;;;3.03;;
25972;SDS011;13765;51.166;4.466;2023-05-06T06:38:32;9.70;;;3.33;;
25972;SDS011;13765;51.166;4.466;2023-05-06T06:41:00;14.43;;;3.40;;
25972;SDS011;13765;51.166;4.466;2023-05-06T06:43:26;9.60;;;3.08;;
25972;SDS011;13765;51.166;4.466;2023-05-06T06:45:52;9.20;;;2.78;;
25972;SDS011;13765;51.166;4.466;2023-05-06T06:48:17;12.70;;;3.75;;
25972;SDS011;13765;51.166;4.466;2023-05-06T06:50:43;12.15;;;4.03;;
25972;SDS011;13765;51.166;4.466;2023-05-06T06:53:11;16.60;;;4.85;;
25972;SDS011;13765;51.166;4.466;2023-05-06T06:55:37;11.75;;;3.08;;
25972;SDS011;13765;51.166;4.466;2023-05-06T06:58:03;13.73;;;3.53;;
25972;SDS011;13765;51.166;4.466;2023-05-06T07:00:28;12.32;;;3.70;;
25972;SDS011;13765;51.166;4.466;2023-05-06T07:02:54;8.75;;;2.88;;
25972;SDS011;13765;51.166;4.466;2023-05-06T07:05:20;9.50;;;2.90;;
25972;SDS011;13765;51.166;4.466;2023-05-06T07:07:45;11.65;;;3.08;;
25972;SDS011;13765;51.166;4.466;2023-05-06T07:10:11;14.60;;;3.38;;
25972;SDS011;13765;51.166;4.466;2023-05-06T07:12:37;10.82;;;3.63;;
25972;SDS011;13765;51.166;4.466;2023-05-06T07:15:02;8.85;;;2.90;;
25972;SDS011;13765;51.166;4.466;2023-05-06T07:17:31;12.95;;;3.45;;
25972;SDS011;13765;51.166;4.466;2023-05-06T07:19:57;13.55;;;4.80;;
25972;SDS011;13765;51.166;4.466;2023-05-06T07:22:23;15.45;;;3.63;;
25972;SDS011;13765;51.166;4.466;2023-05-06T07:24:49;10.98;;;3.15;;
25972;SDS011;13765;51.166;4.466;2023-05-06T07:27:15;10.73;;;2.78;;
25972;SDS011;13765;51.166;4.466;2023-05-06T07:29:40;12.90;;;3.80;;
25972;SDS011;13765;51.166;4.466;2023-05-06T07:32:08;8.80;;;2.90;;
25972;SDS011;13765;51.166;4.466;2023-05-06T07:34:36;15.10;;;3.78;;
25972;SDS011;13765;51.166;4.466;2023-05-06T07:37:02;8.90;;;2.47;;
25972;SDS011;13765;51.166;4.466;2023-05-06T07:39:28;9.73;;;3.22;;
25972;SDS011;13765;51.166;4.466;2023-05-06T07:41:54;11.50;;;3.53;;
25972;SDS011;13765;51.166;4.466;2023-05-06T07:44:20;9.10;;;2.70;;
25972;SDS011;13765;51.166;4.466;2023-05-06T07:46:46;8.48;;;2.90;;
25972;SDS011;13765;51.166;4.466;2023-05-06T07:49:12;7.72;;;2.83;;
25972;SDS011;13765;51.166;4.466;2023-05-06T07:51:38;7.90;;;2.65;;
25972;SDS011;13765;51.166;4.466;2023-05-06T07:54:03;7.55;;;2.28;;
25972;SDS011;13765;51.166;4.466;2023-05-06T07:56:29;11.48;;;2.65;;
25972;SDS011;13765;51.166;4.466;2023-05-06T07:58:57;8.75;;;2.55;;
25972;SDS011;13765;51.166;4.466;2023-05-06T08:01:24;5.68;;;2.15;;
25972;SDS011;13765;51.166;4.466;2023-05-06T08:03:49;7.80;;;3.00;;
25972;SDS011;13765;51.166;4.466;2023-05-06T08:06:16;7.25;;;2.50;;
25972;SDS011;13765;51.166;4.466;2023-05-06T08:08:42;8.15;;;3.38;;
25972;SDS011;13765;51.166;4.466;2023-05-06T08:11:07;10.77;;;2.72;;
25972;SDS011;13765;51.166;4.466;2023-05-06T08:13:33;5.00;;;2.47;;
25972;SDS011;13765;51.166;4.466;2023-05-06T08:15:59;7.00;;;2.30;;
25972;SDS011;13765;51.166;4.466;2023-05-06T08:18:26;9.02;;;2.58;;
25972;SDS011;13765;51.166;4.466;2023-05-06T08:20:52;7.28;;;1.85;;
25972;SDS011;13765;51.166;4.466;2023-05-06T08:23:20;7.90;;;2.92;;
25972;SDS011;13765;51.166;4.466;2023-05-06T08:25:45;4.43;;;1.92;;
25972;SDS011;13765;51.166;4.466;2023-05-06T08:28:11;4.93;;;1.92;;
25972;SDS011;13765;51.166;4.466;2023-05-06T08:30:37;4.35;;;2.08;;
25972;SDS011;13765;51.166;4.466;2023-05-06T08:33:02;10.57;;;2.28;;
25972;SDS011;13765;51.166;4.466;2023-05-06T08:35:28;6.72;;;1.92;;
25972;SDS011;13765;51.166;4.466;2023-05-06T08:37:54;6.03;;;1.98;;
25972;SDS011;13765;51.166;4.466;2023-05-06T08:40:20;5.68;;;2.42;;
25972;SDS011;13765;51.166;4.466;2023-05-06T08:42:48;9.45;;;2.13;;
25972;SDS011;13765;51.166;4.466;2023-05-06T08:45:18;6.50;;;2.00;;
25972;SDS011;13765;51.166;4.466;2023-05-06T08:47:44;10.38;;;2.78;;
25972;SDS011;13765;51.166;4.466;2023-05-06T08:50:11;6.75;;;2.00;;
25972;SDS011;13765;51.166;4.466;2023-05-06T08:52:39;6.50;;;2.50;;
25972;SDS011;13765;51.166;4.466;2023-05-06T08:55:08;8.93;;;2.20;;
25972;SDS011;13765;51.166;4.466;2023-05-06T08:57:34;9.68;;;2.95;;
25972;SDS011;13765;51.166;4.466;2023-05-06T09:00:01;6.93;;;2.78;;
25972;SDS011;13765;51.166;4.466;2023-05-06T09:02:29;6.45;;;2.13;;
25972;SDS011;13765;51.166;4.466;2023-05-06T09:04:54;9.13;;;3.17;;
25972;SDS011;13765;51.166;4.466;2023-05-06T09:07:23;9.98;;;2.22;;
25972;SDS011;13765;51.166;4.466;2023-05-06T09:09:49;5.50;;;1.95;;
25972;SDS011;13765;51.166;4.466;2023-05-06T09:12:15;12.48;;;2.42;;
25972;SDS011;13765;51.166;4.466;2023-05-06T09:14:41;6.63;;;2.63;;
25972;SDS011;13765;51.166;4.466;2023-05-06T09:17:16;7.30;;;2.75;;
25972;SDS011;13765;51.166;4.466;2023-05-06T09:19:51;6.88;;;2.17;;
25972;SDS011;13765;51.166;4.466;2023-05-06T09:22:24;3.33;;;1.60;;
25972;SDS011;13765;51.166;4.466;2023-05-06T09:24:52;6.63;;;2.42;;
25972;SDS011;13765;51.166;4.466;2023-05-06T09:27:25;6.05;;;2.05;;
25972;SDS011;13765;51.166;4.466;2023-05-06T09:29:59;5.57;;;1.92;;
25972;SDS011;13765;51.166;4.466;2023-05-06T09:32:30;5.05;;;2.03;;
25972;SDS011;13765;51.166;4.466;2023-05-06T09:34:56;4.32;;;1.98;;
25972;SDS011;13765;51.166;4.466;2023-05-06T09:37:26;4.70;;;2.10;;
25972;SDS011;13765;51.166;4.466;2023-05-06T09:39:56;7.43;;;2.15;;
25972;SDS011;13765;51.166;4.466;2023-05-06T09:42:23;7.65;;;2.05;;
25972;SDS011;13765;51.166;4.466;2023-05-06T09:44:52;4.47;;;1.30;;
25972;SDS011;13765;51.166;4.466;2023-05-06T09:47:22;6.15;;;2.05;;
25972;SDS011;13765;51.166;4.466;2023-05-06T09:49:49;4.43;;;1.48;;
25972;SDS011;13765;51.166;4.466;2023-05-06T09:52:15;6.80;;;1.55;;
25972;SDS011;13765;51.166;4.466;2023-05-06T09:54:43;2.92;;;1.40;;
25972;SDS011;13765;51.166;4.466;2023-05-06T09:57:10;4.72;;;1.75;;
25972;SDS011;13765;51.166;4.466;2023-05-06T09:59:42;4.93;;;1.75;;
25972;SDS011;13765;51.166;4.466;2023-05-06T10:02:09;4.55;;;1.45;;
25972;SDS011;13765;51.166;4.466;2023-05-06T10:04:39;4.00;;;1.63;;
25972;SDS011;13765;51.166;4.466;2023-05-06T10:07:09;4.20;;;1.80;;
25972;SDS011;13765;51.166;4.466;2023-05-06T10:09:37;3.10;;;1.35;;
25972;SDS011;13765;51.166;4.466;2023-05-06T10:12:07;2.60;;;1.20;;
25972;SDS011;13765;51.166;4.466;2023-05-06T10:14:36;3.60;;;1.17;;
25972;SDS011;13765;51.166;4.466;2023-05-06T10:17:05;3.95;;;1.40;;
25972;SDS011;13765;51.166;4.466;2023-05-06T10:19:46;4.63;;;1.65;;
25972;SDS011;13765;51.166;4.466;2023-05-06T10:22:29;8.10;;;2.10;;
25972;SDS011;13765;51.166;4.466;2023-05-06T10:25:29;4.05;;;1.20;;
25972;SDS011;13765;51.166;4.466;2023-05-06T10:28:06;7.25;;;1.83;;
25972;SDS011;13765;51.166;4.466;2023-05-06T10:30:33;6.10;;;1.98;;
25972;SDS011;13765;51.166;4.466;2023-05-06T10:33:03;3.65;;;1.70;;
25972;SDS011;13765;51.166;4.466;2023-05-06T10:38:02;8.27;;;1.58;;
25972;SDS011;13765;51.166;4.466;2023-05-06T10:40:33;6.75;;;2.10;;
25972;SDS011;13765;51.166;4.466;2023-05-06T10:46:00;5.18;;;1.30;;
25972;SDS011;13765;51.166;4.466;2023-05-06T10:48:26;5.20;;;1.25;;
25972;SDS011;13765;51.166;4.466;2023-05-06T10:56:21;6.53;;;2.05;;
25972;SDS011;13765;51.166;4.466;2023-05-06T10:58:46;3.22;;;1.60;;
25972;SDS011;13765;51.166;4.466;2023-05-06T11:01:13;4.75;;;1.58;;
25972;SDS011;13765;51.166;4.466;2023-05-06T11:03:40;3.30;;;0.98;;
25972;SDS011;13765;51.166;4.466;2023-05-06T11:06:07;1.75;;;1.05;;
25972;SDS011;13765;51.166;4.466;2023-05-06T11:08:33;9.45;;;1.75;;
25972;SDS011;13765;51.166;4.466;2023-05-06T11:10:59;4.57;;;1.80;;
25972;SDS011;13765;51.166;4.466;2023-05-06T11:13:29;5.90;;;1.55;;
25972;SDS011;13765;51.166;4.466;2023-05-06T11:15:59;2.13;;;1.67;;
25972;SDS011;13765;51.166;4.466;2023-05-06T11:26:11;3.92;;;1.40;;
25972;SDS011;13765;51.166;4.466;2023-05-06T11:28:38;9.02;;;1.55;;
25972;SDS011;13765;51.166;4.466;2023-05-06T11:31:04;4.53;;;1.38;;
25972;SDS011;13765;51.166;4.466;2023-05-06T11:33:33;3.50;;;1.20;;
25972;SDS011;13765;51.166;4.466;2023-05-06T11:36:01;3.13;;;1.58;;
25972;SDS011;13765;51.166;4.466;2023-05-06T11:38:47;6.10;;;1.75;;
25972;SDS011;13765;51.166;4.466;2023-05-06T11:43:48;7.60;;;1.75;;
25972;SDS011;13765;51.166;4.466;2023-05-06T11:46:17;4.55;;;1.50;;
25972;SDS011;13765;51.166;4.466;2023-05-06T11:48:43;5.20;;;1.30;;
25972;SDS011;13765;51.166;4.466;2023-05-06T11:51:09;4.32;;;1.65;;
25972;SDS011;13765;51.166;4.466;2023-05-06T11:53:34;5.60;;;1.35;;
25972;SDS011;13765;51.166;4.466;2023-05-06T11:56:01;2.45;;;0.77;;
25972;SDS011;13765;51.166;4.466;2023-05-06T11:58:29;5.07;;;1.17;;
25972;SDS011;13765;51.166;4.466;2023-05-06T12:00:56;6.13;;;1.52;;
25972;SDS011;13765;51.166;4.466;2023-05-06T12:03:26;12.25;;;1.10;;
25972;SDS011;13765;51.166;4.466;2023-05-06T12:05:53;5.60;;;1.33;;
25972;SDS011;13765;51.166;4.466;2023-05-06T12:08:29;2.53;;;0.68;;
25972;SDS011;13765;51.166;4.466;2023-05-06T12:11:02;3.42;;;1.77;;
25972;SDS011;13765;51.166;4.466;2023-05-06T12:13:30;2.60;;;1.08;;
25972;SDS011;13765;51.166;4.466;2023-05-06T12:15:57;4.53;;;1.50;;
25972;SDS011;13765;51.166;4.466;2023-05-06T12:18:24;3.63;;;1.33;;
25972;SDS011;13765;51.166;4.466;2023-05-06T12:20:53;5.43;;;1.48;;
25972;SDS011;13765;51.166;4.466;2023-05-06T12:23:20;4.28;;;1.63;;
25972;SDS011;13765;51.166;4.466;2023-05-06T12:26:00;2.25;;;0.98;;
25972;SDS011;13765;51.166;4.466;2023-05-06T12:28:31;2.50;;;1.43;;
25972;SDS011;13765;51.166;4.466;2023-05-06T12:31:00;1.83;;;1.00;;
25972;SDS011;13765;51.166;4.466;2023-05-06T12:33:45;3.33;;;1.05;;
25972;SDS011;13765;51.166;4.466;2023-05-06T12:36:13;3.35;;;1.40;;
25972;SDS011;13765;51.166;4.466;2023-05-06T12:38:47;4.75;;;1.88;;
25972;SDS011;13765;51.166;4.466;2023-05-06T12:41:17;3.60;;;1.10;;
25972;SDS011;13765;51.166;4.466;2023-05-06T12:43:44;6.25;;;1.40;;
25972;SDS011;13765;51.166;4.466;2023-05-06T12:46:10;4.88;;;1.23;;
25972;SDS011;13765;51.166;4.466;2023-05-06T12:48:36;2.95;;;0.95;;
25972;SDS011;13765;51.166;4.466;2023-05-06T12:51:20;4.40;;;1.13;;
25972;SDS011;13765;51.166;4.466;2023-05-06T12:53:49;5.07;;;1.35;;
25972;SDS011;13765;51.166;4.466;2023-05-06T12:56:17;5.45;;;1.42;;
25972;SDS011;13765;51.166;4.466;2023-05-06T12:58:54;3.75;;;1.35;;
25972;SDS011;13765;51.166;4.466;2023-05-06T13:01:20;5.75;;;1.13;;
25972;SDS011;13765;51.166;4.466;2023-05-06T13:03:46;6.18;;;1.60;;
25972;SDS011;13765;51.166;4.466;2023-05-06T13:06:11;5.53;;;1.60;;
25972;SDS011;13765;51.166;4.466;2023-05-06T13:08:38;3.88;;;1.13;;
25972;SDS011;13765;51.166;4.466;2023-05-06T13:11:04;4.80;;;1.17;;
25972;SDS011;13765;51.166;4.466;2023-05-06T13:13:30;3.35;;;1.20;;
25972;SDS011;13765;51.166;4.466;2023-05-06T13:15:55;3.33;;;1.40;;
25972;SDS011;13765;51.166;4.466;2023-05-06T13:18:21;3.13;;;0.85;;
25972;SDS011;13765;51.166;4.466;2023-05-06T13:20:47;4.03;;;1.40;;
25972;SDS011;13765;51.166;4.466;2023-05-06T13:23:12;7.28;;;1.23;;
25972;SDS011;13765;51.166;4.466;2023-05-06T13:25:41;3.95;;;1.67;;
25972;SDS011;13765;51.166;4.466;2023-05-06T13:28:06;6.50;;;1.40;;
25972;SDS011;13765;51.166;4.466;2023-05-06T13:30:32;3.15;;;0.90;;
25972;SDS011;13765;51.166;4.466;2023-05-06T13:32:57;2.95;;;1.00;;
25972;SDS011;13765;51.166;4.466;2023-05-06T13:35:23;4.88;;;0.85;;
25972;SDS011;13765;51.166;4.466;2023-05-06T13:37:49;4.95;;;1.02;;
25972;SDS011;13765;51.166;4.466;2023-05-06T13:40:14;4.43;;;0.70;;
25972;SDS011;13765;51.166;4.466;2023-05-06T13:42:40;4.20;;;0.70;;
25972;SDS011;13765;51.166;4.466;2023-05-06T13:45:06;0.98;;;0.80;;
25972;SDS011;13765;51.166;4.466;2023-05-06T13:47:32;1.95;;;0.77;;
25972;SDS011;13765;51.166;4.466;2023-05-06T13:49:57;1.63;;;0.80;;
25972;SDS011;13765;51.166;4.466;2023-05-06T13:52:23;3.42;;;0.85;;
25972;SDS011;13765;51.166;4.466;2023-05-06T13:54:49;3.40;;;0.98;;
25972;SDS011;13765;51.166;4.466;2023-05-06T13:57:14;6.75;;;0.95;;
25972;SDS011;13765;51.166;4.466;2023-05-06T13:59:40;4.78;;;1.30;;
25972;SDS011;13765;51.166;4.466;2023-05-06T14:02:05;3.97;;;0.73;;
25972;SDS011;13765;51.166;4.466;2023-05-06T14:04:33;2.83;;;1.27;;
25972;SDS011;13765;51.166;4.466;2023-05-06T14:06:59;6.97;;;1.15;;
25972;SDS011;13765;51.166;4.466;2023-05-06T14:09:25;7.55;;;1.58;;
25972;SDS011;13765;51.166;4.466;2023-05-06T14:11:50;5.50;;;1.52;;
25972;SDS011;13765;51.166;4.466;2023-05-06T14:14:16;3.22;;;1.27;;
25972;SDS011;13765;51.166;4.466;2023-05-06T14:16:42;4.95;;;0.82;;
25972;SDS011;13765;51.166;4.466;2023-05-06T14:19:07;2.63;;;0.80;;
25972;SDS011;13765;51.166;4.466;2023-05-06T14:21:33;3.72;;;1.20;;
25972;SDS011;13765;51.166;4.466;2023-05-06T14:23:58;7.82;;;2.20;;
25972;SDS011;13765;51.166;4.466;2023-05-06T14:26:25;4.72;;;1.20;;
25972;SDS011;13765;51.166;4.466;2023-05-06T14:28:50;8.00;;;1.50;;
25972;SDS011;13765;51.166;4.466;2023-05-06T14:31:16;6.30;;;1.73;;
25972;SDS011;13765;51.166;4.466;2023-05-06T14:33:42;4.82;;;1.58;;
25972;SDS011;13765;51.166;4.466;2023-05-06T14:36:07;9.45;;;1.75;;
25972;SDS011;13765;51.166;4.466;2023-05-06T14:38:33;8.07;;;1.23;;
25972;SDS011;13765;51.166;4.466;2023-05-06T14:40:58;4.82;;;1.42;;
25972;SDS011;13765;51.166;4.466;2023-05-06T14:43:25;4.45;;;1.40;;
25972;SDS011;13765;51.166;4.466;2023-05-06T14:45:50;6.88;;;2.50;;
25972;SDS011;13765;51.166;4.466;2023-05-06T14:48:16;3.83;;;1.63;;
25972;SDS011;13765;51.166;4.466;2023-05-06T14:50:41;7.88;;;2.00;;
25972;SDS011;13765;51.166;4.466;2023-05-06T14:53:10;8.35;;;2.05;;
25972;SDS011;13765;51.166;4.466;2023-05-06T14:55:35;6.85;;;1.70;;
25972;SDS011;13765;51.166;4.466;2023-05-06T14:58:01;7.85;;;2.08;;
25972;SDS011;13765;51.166;4.466;2023-05-06T15:00:27;5.82;;;1.80;;
25972;SDS011;13765;51.166;4.466;2023-05-06T15:02:53;8.95;;;1.92;;
25972;SDS011;13765;51.166;4.466;2023-05-06T15:05:18;4.22;;;2.13;;
25972;SDS011;13765;51.166;4.466;2023-05-06T15:07:44;3.88;;;2.25;;
25972;SDS011;13765;51.166;4.466;2023-05-06T15:10:10;6.45;;;2.60;;
25972;SDS011;13765;51.166;4.466;2023-05-06T15:12:36;9.77;;;2.65;;
25972;SDS011;13765;51.166;4.466;2023-05-06T15:15:02;12.40;;;2.42;;
25972;SDS011;13765;51.166;4.466;2023-05-06T15:17:28;4.30;;;2.10;;